Time;durP1;ratioP1;P1;durP2;ratioP2;P2;SDS_P1;SDS_P2;PMS_P1;PMS_P2;Temp;Humidity;BMP_temperature;BMP_pressure;BME280_temperature;BME280_humidity;BME280_pressure;Samples;Min_cycle;Max_cycle;Signal;HPM_P1;HPM_P2
2022/12/23 00:01:21;;;;;;;46.90;22.30;;;;;;;8.78;100.00;100840.69;5051739;28;20046;-78
2022/12/23 00:03:50;;;;;;;51.50;23.50;;;;;;;8.75;100.00;100850.19;5053742;28;20511;-78
2022/12/23 00:06:19;;;;;;;48.10;22.25;;;;;;;8.77;100.00;100848.06;5054945;28;20048;-78
2022/12/23 00:08:47;;;;;;;42.95;22.52;;;;;;;8.73;100.00;100844.19;5053824;28;20510;-78
2022/12/23 00:11:17;;;;;;;50.65;22.05;;;;;;;8.83;100.00;100829.81;5054402;28;20422;-78
2022/12/23 00:16:35;;;;;;;46.33;21.45;;;;;;;8.81;100.00;100816.41;5054834;28;20053;-78
2022/12/23 00:19:04;;;;;;;49.42;22.63;;;;;;;8.83;100.00;100805.25;5050676;28;20045;-78
2022/12/23 00:21:32;;;;;;;48.30;22.63;;;;;;;8.59;100.00;100814.63;5054096;28;20056;-78
2022/12/23 00:24:00;;;;;;;42.85;20.63;;;;;;;8.65;100.00;100811.94;5054729;28;20049;-78
2022/12/23 00:26:28;;;;;;;48.67;21.65;;;;;;;8.72;100.00;100813.38;5054361;28;20585;-78
2022/12/23 00:28:57;;;;;;;44.28;22.55;;;;;;;8.67;100.00;100807.03;5054494;28;20052;-78
2022/12/23 00:31:25;;;;;;;44.55;21.38;;;;;;;8.76;100.00;100813.66;5054238;28;20123;-78
2022/12/23 00:33:53;;;;;;;42.88;21.92;;;;;;;8.68;100.00;100823.16;5054829;28;20131;-78
2022/12/23 00:36:27;;;;;;;48.95;22.50;;;;;;;8.57;100.00;100819.50;5054249;28;20396;-78
2022/12/23 00:44:30;;;;;;;46.42;22.75;;;;;;;8.81;100.00;100835.50;5054288;28;20053;-78
2022/12/23 00:46:59;;;;;;;45.63;22.92;;;;;;;8.65;100.00;100831.84;5054466;28;20045;-78
2022/12/23 00:49:42;;;;;;;51.17;24.83;;;;;;;8.51;100.00;100838.81;5054249;28;20041;-78
2022/12/23 00:52:12;;;;;;;44.80;23.38;;;;;;;8.38;100.00;100845.50;5052749;28;20041;-78
2022/12/23 00:54:40;;;;;;;50.58;25.10;;;;;;;8.54;100.00;100851.94;5054367;28;20045;-78
2022/12/23 00:57:09;;;;;;;50.90;26.38;;;;;;;8.53;100.00;100851.13;5053079;28;20053;-78
2022/12/23 00:59:37;;;;;;;54.20;25.00;;;;;;;8.66;100.00;100852.59;5054205;28;20391;-78
2022/12/23 01:07:37;;;;;;;55.40;25.00;;;;;;;8.79;100.00;100856.78;5054161;28;20463;-79
2022/12/23 01:10:06;;;;;;;54.22;25.23;;;;;;;8.77;100.00;100858.97;5053488;28;20484;-78
2022/12/23 01:12:33;;;;;;;56.00;25.23;;;;;;;8.76;100.00;100857.34;5053746;28;20041;-78
2022/12/23 01:15:01;;;;;;;56.95;26.52;;;;;;;8.72;100.00;100851.56;5054054;28;20480;-78
2022/12/23 01:17:29;;;;;;;53.38;24.70;;;;;;;8.72;100.00;100850.75;5053417;28;20049;-78
2022/12/23 01:19:57;;;;;;;62.03;27.67;;;;;;;8.71;100.00;100863.53;5053890;28;20056;-78
2022/12/23 01:22:25;;;;;;;53.90;25.17;;;;;;;8.63;100.00;100864.03;5053074;28;20067;-78
2022/12/23 01:24:53;;;;;;;55.40;25.55;;;;;;;8.66;100.00;100851.78;5053860;28;20491;-78
2022/12/23 01:27:21;;;;;;;49.80;24.67;;;;;;;8.75;100.00;100844.75;5053605;28;20052;-78
2022/12/23 01:29:48;;;;;;;50.30;25.70;;;;;;;8.70;100.00;100847.47;5052510;28;20044;-78
2022/12/23 01:32:16;;;;;;;55.63;23.40;;;;;;;8.68;100.00;100855.06;5052995;28;20049;-78
2022/12/23 01:34:44;;;;;;;53.25;23.10;;;;;;;8.74;100.00;100867.66;5052997;28;20064;-78
2022/12/23 01:37:12;;;;;;;46.85;22.52;;;;;;;8.71;100.00;100854.56;5053537;28;20045;-78
2022/12/23 01:39:40;;;;;;;46.80;23.48;;;;;;;8.63;100.00;100847.66;5052540;28;20506;-78
2022/12/23 01:45:16;;;;;;;50.30;22.33;;;;;;;8.66;100.00;100835.41;5042984;28;20415;-78
2022/12/23 01:47:59;;;;;;;43.10;22.20;;;;;;;8.55;100.00;100839.97;5052545;28;20044;-78
2022/12/23 01:50:35;;;;;;;40.85;22.15;;;;;;;8.55;100.00;100815.41;5053172;28;20049;-78
2022/12/23 01:53:19;;;;;;;47.45;22.00;;;;;;;8.56;100.00;100828.78;5050946;28;20533;-78
2022/12/23 01:56:04;;;;;;;46.33;20.92;;;;;;;8.58;100.00;100821.19;5053311;28;20041;-78
2022/12/23 01:58:49;;;;;;;42.63;22.25;;;;;;;8.59;100.00;100828.28;5053162;28;20049;-78
2022/12/23 02:04:08;;;;;;;40.58;20.48;;;;;;;8.57;100.00;100832.34;5051599;28;20067;-78
2022/12/23 02:09:33;;;;;;;36.58;18.23;;;;;;;8.75;100.00;100839.28;5052635;28;20048;-78
2022/12/23 02:12:09;;;;;;;33.17;18.00;;;;;;;8.84;100.00;100842.34;5052311;28;20045;-78
2022/12/23 02:18:00;;;;;;;32.10;17.52;;;;;;;8.65;100.00;100833.78;5051414;28;20499;-78
2022/12/23 02:20:50;;;;;;;29.23;15.57;;;;;;;8.55;100.00;100829.88;5052245;28;20041;-78
2022/12/23 02:23:52;;;;;;;33.35;17.13;;;;;;;8.51;100.00;100823.25;5048294;28;20049;-78
2022/12/23 02:26:41;;;;;;;30.15;15.73;;;;;;;8.41;100.00;100828.63;5032679;28;20052;-78
2022/12/23 02:29:28;;;;;;;29.75;15.95;;;;;;;8.40;100.00;100816.88;5042036;28;20049;-78
2022/12/23 02:31:58;;;;;;;34.72;17.02;;;;;;;8.35;100.00;100814.13;5052051;28;20365;-78
2022/12/23 02:34:40;;;;;;;28.85;16.40;;;;;;;8.39;100.00;100819.88;5052416;28;20044;-78
2022/12/23 02:37:23;;;;;;;32.47;16.20;;;;;;;8.34;100.00;100813.31;5052375;28;20049;-78
2022/12/23 02:40:09;;;;;;;32.45;16.38;;;;;;;8.19;100.00;100810.44;5051304;28;20037;-78
2022/12/23 02:42:44;;;;;;;26.35;15.25;;;;;;;8.27;100.00;100806.41;5051653;28;20040;-78
2022/12/23 02:45:26;;;;;;;25.50;13.68;;;;;;;8.24;100.00;100796.00;5052292;28;20053;-78
2022/12/23 02:47:59;;;;;;;28.98;15.02;;;;;;;8.27;100.00;100807.22;5052019;28;20052;-78
2022/12/23 02:50:31;;;;;;;27.10;14.15;;;;;;;8.27;100.00;100803.69;5052530;28;20045;-78
2022/12/23 02:53:08;;;;;;;32.40;14.68;;;;;;;8.26;100.00;100794.69;5052172;28;20760;-78
2022/12/23 02:55:39;;;;;;;23.90;15.02;;;;;;;8.23;100.00;100787.03;5051763;28;20037;-78
2022/12/23 02:58:11;;;;;;;26.40;14.02;;;;;;;8.16;100.00;100789.97;5051746;28;20052;-78
2022/12/23 03:00:41;;;;;;;28.40;14.13;;;;;;;8.12;100.00;100801.66;5051325;28;20052;-78
2022/12/23 03:03:10;;;;;;;26.60;14.05;;;;;;;8.20;100.00;100795.72;5051940;28;20045;-78
2022/12/23 03:05:41;;;;;;;36.92;17.05;;;;;;;8.18;100.00;100800.59;5052408;28;20052;-78
2022/12/23 03:08:25;;;;;;;28.80;14.40;;;;;;;8.15;100.00;100798.38;5051334;28;20392;-78
2022/12/23 03:11:12;;;;;;;34.13;15.43;;;;;;;8.06;100.00;100792.56;5051419;28;20804;-78
2022/12/23 03:13:45;;;;;;;27.25;14.65;;;;;;;8.15;100.00;100782.88;5051756;28;20068;-78
2022/12/23 03:16:26;;;;;;;28.48;14.85;;;;;;;8.14;100.00;100791.28;5051901;28;20060;-78
2022/12/23 03:18:59;;;;;;;31.23;14.45;;;;;;;8.16;100.00;100800.06;5051963;28;20045;-78
2022/12/23 03:21:36;;;;;;;28.85;15.27;;;;;;;8.28;100.00;100808.88;5052202;28;20415;-78
2022/12/23 03:24:28;;;;;;;27.95;14.95;;;;;;;8.16;100.00;100800.84;5049428;28;20071;-78
2022/12/23 03:26:59;;;;;;;30.02;14.38;;;;;;;8.30;100.00;100804.00;5044828;28;20041;-78
2022/12/23 03:30:07;;;;;;;23.60;13.80;;;;;;;8.24;100.00;100813.22;5052055;28;20041;-78
2022/12/23 03:32:42;;;;;;;27.05;13.48;;;;;;;8.23;100.00;100800.66;5050424;28;20522;-78
2022/12/23 03:35:14;;;;;;;29.40;14.38;;;;;;;8.18;100.00;100795.97;5051888;28;20488;-78
2022/12/23 03:37:46;;;;;;;26.08;13.63;;;;;;;8.19;100.00;100797.63;5052057;28;20056;-78
2022/12/23 03:40:21;;;;;;;23.95;12.27;;;;;;;8.14;100.00;100802.19;5051692;28;20053;-78
2022/12/23 03:42:57;;;;;;;22.92;11.45;;;;;;;8.18;100.00;100790.50;5050772;28;20056;-78
2022/12/23 03:45:32;;;;;;;23.10;12.80;;;;;;;8.15;100.00;100782.03;5051129;28;20518;-78
2022/12/23 03:48:50;;;;;;;20.33;11.52;;;;;;;8.16;100.00;100784.50;5050938;28;20044;-78
2022/12/23 03:51:25;;;;;;;27.65;13.32;;;;;;;8.08;100.00;100771.34;5012884;28;20057;-78
2022/12/23 03:54:02;;;;;;;27.23;13.25;;;;;;;8.18;100.00;100773.34;5029695;28;20057;-78
2022/12/23 03:56:34;;;;;;;25.05;12.57;;;;;;;8.29;100.00;100772.34;5043214;28;20049;-78
2022/12/23 03:59:07;;;;;;;24.02;12.73;;;;;;;8.30;100.00;100782.19;5051061;28;20111;-78
2022/12/23 04:01:46;;;;;;;26.60;13.90;;;;;;;8.28;100.00;100778.91;5031828;28;20053;-78
2022/12/23 04:04:17;;;;;;;27.30;12.25;;;;;;;8.22;100.00;100771.75;5031641;28;20132;-78
2022/12/23 04:06:56;;;;;;;23.52;13.02;;;;;;;8.18;100.00;100779.59;5031780;28;20049;-78
2022/12/23 04:09:26;;;;;;;22.00;11.90;;;;;;;8.22;100.00;100777.22;5042261;28;20776;-78
2022/12/23 04:11:57;;;;;;;26.67;14.48;;;;;;;8.12;100.00;100769.75;5051076;28;20061;-78
2022/12/23 04:14:25;;;;;;;28.63;15.07;;;;;;;8.09;100.00;100763.97;5054593;28;20048;-78
2022/12/23 04:16:55;;;;;;;30.73;13.60;;;;;;;8.11;100.00;100767.28;5044079;28;20391;-78
2022/12/23 04:19:23;;;;;;;27.83;14.13;;;;;;;8.06;100.00;100771.59;5054845;28;20499;-78
2022/12/23 04:21:55;;;;;;;32.47;14.13;;;;;;;7.94;100.00;100769.03;5054934;28;20111;-78
2022/12/23 04:24:23;;;;;;;25.17;13.48;;;;;;;8.05;100.00;100761.78;5054387;28;20048;-78
2022/12/23 04:26:51;;;;;;;27.67;15.90;;;;;;;8.17;100.00;100771.72;5054109;28;20040;-78
2022/12/23 04:29:19;;;;;;;26.95;13.82;;;;;;;8.22;100.00;100774.50;5054423;28;20041;-78
2022/12/23 04:31:46;;;;;;;27.73;14.32;;;;;;;8.14;100.00;100775.78;5054588;28;20068;-78
2022/12/23 04:34:15;;;;;;;26.10;13.50;;;;;;;8.18;100.00;100765.16;5053334;28;20421;-78
2022/12/23 04:36:42;;;;;;;30.52;14.80;;;;;;;8.28;100.00;100778.91;5053196;28;20048;-78
2022/12/23 04:39:10;;;;;;;29.17;14.30;;;;;;;8.37;100.00;100767.50;5053961;28;20052;-78
2022/12/23 04:41:38;;;;;;;27.88;14.00;;;;;;;8.20;100.00;100773.91;5054505;28;20056;-78
2022/12/23 04:44:07;;;;;;;31.73;14.82;;;;;;;8.25;100.00;100775.88;5054152;28;20045;-78
2022/12/23 04:46:35;;;;;;;27.48;13.40;;;;;;;8.27;100.00;100790.88;5054127;28;20049;-78
2022/12/23 04:49:03;;;;;;;26.98;13.93;;;;;;;8.32;100.00;100782.72;5054345;28;20041;-78
2022/12/23 04:51:31;;;;;;;30.98;14.27;;;;;;;8.28;100.00;100794.44;5053120;28;20816;-78
2022/12/23 04:53:59;;;;;;;22.52;12.93;;;;;;;8.21;100.00;100797.34;5052757;28;20056;-78
2022/12/23 04:56:27;;;;;;;23.33;12.88;;;;;;;8.15;100.00;100787.47;5053978;28;20048;-78
2022/12/23 04:58:54;;;;;;;18.75;12.27;;;;;;;8.15;100.00;100779.31;5052901;28;20049;-78
2022/12/23 05:01:22;;;;;;;21.67;12.18;;;;;;;8.04;100.00;100762.03;5054009;28;20041;-78
2022/12/23 05:03:50;;;;;;;24.02;11.75;;;;;;;8.05;100.00;100772.69;5052803;28;20407;-78
2022/12/23 05:06:18;;;;;;;23.15;11.60;;;;;;;7.98;100.00;100777.53;5053704;28;20053;-78
2022/12/23 05:08:46;;;;;;;20.52;11.88;;;;;;;7.91;100.00;100768.72;5052706;28;20407;-78
2022/12/23 05:11:14;;;;;;;19.10;11.10;;;;;;;7.85;100.00;100772.47;5053657;28;20045;-78
2022/12/23 05:13:41;;;;;;;23.73;11.70;;;;;;;7.77;100.00;100760.97;5053749;28;20041;-78
2022/12/23 05:16:09;;;;;;;26.88;11.98;;;;;;;7.78;100.00;100778.94;5053659;28;20044;-78
2022/12/23 05:18:37;;;;;;;20.13;11.10;;;;;;;7.89;100.00;100774.44;5052719;28;20052;-78
2022/12/23 05:21:05;;;;;;;22.38;11.57;;;;;;;7.97;100.00;100775.88;5053686;28;20056;-76
2022/12/23 05:23:33;;;;;;;23.23;11.63;;;;;;;7.94;100.00;100781.84;5051848;28;20045;-79
2022/12/23 05:26:01;;;;;;;21.90;10.80;;;;;;;7.90;100.00;100795.16;5052774;28;20059;-79
2022/12/23 05:28:29;;;;;;;21.88;12.00;;;;;;;7.87;100.00;100803.03;5051243;28;20041;-79
2022/12/23 05:31:02;;;;;;;21.05;12.05;;;;;;;7.93;100.00;100794.63;5043533;28;20041;-79
2022/12/23 05:33:31;;;;;;;19.52;11.00;;;;;;;7.87;100.00;100792.13;5048795;28;20033;-79
2022/12/23 05:36:03;;;;;;;20.05;11.20;;;;;;;7.88;100.00;100783.69;5042216;28;20040;-79
2022/12/23 05:38:31;;;;;;;21.05;10.93;;;;;;;7.74;100.00;100772.38;5051608;28;20041;-79
2022/12/23 05:40:59;;;;;;;24.73;12.02;;;;;;;7.78;100.00;100784.41;5053171;28;20041;-79
2022/12/23 05:43:27;;;;;;;26.70;11.52;;;;;;;7.74;100.00;100790.63;5052011;28;20532;-80
2022/12/23 05:45:55;;;;;;;21.63;11.25;;;;;;;7.84;100.00;100788.03;5052803;28;20041;-79
2022/12/23 05:48:23;;;;;;;20.75;11.80;;;;;;;7.88;100.00;100782.88;5051021;28;20055;-79
2022/12/23 05:50:52;;;;;;;21.95;12.23;;;;;;;7.83;100.00;100791.84;5050143;28;20396;-79
2022/12/23 05:53:23;;;;;;;23.15;11.82;;;;;;;7.79;100.00;100788.75;5050009;28;20049;-79
2022/12/23 05:55:51;;;;;;;24.10;11.23;;;;;;;7.85;100.00;100794.28;5033619;28;20064;-78
2022/12/23 05:58:19;;;;;;;20.52;11.98;;;;;;;8.01;100.00;100782.47;5038297;28;20048;-77
2022/12/23 06:00:47;;;;;;;20.55;11.70;;;;;;;7.96;100.00;100784.31;5038847;28;20045;-76
2022/12/23 06:03:15;;;;;;;25.15;12.93;;;;;;;8.01;100.00;100796.09;5031876;28;20056;-76
2022/12/23 06:05:43;;;;;;;24.08;12.20;;;;;;;8.05;100.00;100788.22;5033978;28;20385;-76
2022/12/23 06:08:11;;;;;;;23.10;11.70;;;;;;;8.09;100.00;100786.63;5033486;28;20037;-77
2022/12/23 06:10:39;;;;;;;21.65;11.40;;;;;;;8.18;100.00;100795.97;5035998;28;20037;-78
2022/12/23 06:13:08;;;;;;;25.90;12.48;;;;;;;8.30;100.00;100795.81;5031714;28;20100;-78
2022/12/23 06:15:36;;;;;;;22.33;12.00;;;;;;;8.30;100.00;100795.81;5032189;28;20511;-77
2022/12/23 06:18:04;;;;;;;21.92;12.35;;;;;;;8.15;100.00;100807.41;5037316;28;20045;-78
2022/12/23 06:20:31;;;;;;;22.10;12.20;;;;;;;8.10;100.00;100807.34;5052253;28;20044;-77
2022/12/23 06:22:59;;;;;;;21.42;11.77;;;;;;;8.11;100.00;100803.53;5040547;28;20472;-77
2022/12/23 06:25:27;;;;;;;20.63;10.88;;;;;;;8.11;100.00;100809.00;5050823;28;20037;-78
2022/12/23 06:27:55;;;;;;;25.80;11.48;;;;;;;8.09;100.00;100823.94;5050496;28;20075;-78
2022/12/23 06:30:23;;;;;;;20.60;10.93;;;;;;;8.11;100.00;100813.63;5051955;28;20044;-78
2022/12/23 06:32:52;;;;;;;19.55;10.45;;;;;;;7.90;100.00;100830.59;5050925;28;20053;-78
2022/12/23 06:35:19;;;;;;;28.80;10.77;;;;;;;8.03;100.00;100817.63;5051277;28;20496;-78
2022/12/23 06:37:47;;;;;;;22.63;12.35;;;;;;;8.03;100.00;100818.44;5051439;28;20044;-78
2022/12/23 06:40:15;;;;;;;21.70;12.07;;;;;;;7.91;100.00;100826.78;5052347;28;20057;-78
2022/12/23 06:42:43;;;;;;;23.80;11.10;;;;;;;7.94;100.00;100828.19;5052455;28;20045;-79
2022/12/23 06:45:12;;;;;;;24.55;12.07;;;;;;;8.05;100.00;100832.66;5051717;28;20392;-78
2022/12/23 06:47:40;;;;;;;23.67;12.57;;;;;;;8.06;100.00;100838.91;5083144;28;20044;-77
2022/12/23 06:50:08;;;;;;;17.50;11.02;;;;;;;8.04;100.00;100852.81;5051278;28;20041;-77
2022/12/23 06:52:36;;;;;;;25.92;12.57;;;;;;;8.07;100.00;100838.66;5052067;28;20056;-77
2022/12/23 06:55:04;;;;;;;21.25;11.98;;;;;;;8.17;100.00;100839.88;5051984;28;20045;-78
2022/12/23 06:57:35;;;;;;;24.63;11.95;;;;;;;8.10;100.00;100839.22;5051916;28;20052;-78
2022/12/23 07:00:03;;;;;;;21.60;11.57;;;;;;;8.14;100.00;100843.94;5052030;28;20045;-77
2022/12/23 07:02:31;;;;;;;20.90;12.05;;;;;;;8.13;100.00;100844.19;5052067;28;20034;-78
2022/12/23 07:05:00;;;;;;;25.42;12.68;;;;;;;8.12;100.00;100843.34;5050737;28;20037;-78
2022/12/23 07:07:27;;;;;;;29.50;12.43;;;;;;;8.02;100.00;100845.97;5051746;28;20433;-78
2022/12/23 07:09:55;;;;;;;20.05;11.68;;;;;;;7.93;100.00;100832.78;5050627;28;20045;-77
2022/12/23 07:12:23;;;;;;;24.27;11.57;;;;;;;8.04;100.00;100850.09;5051762;28;20041;-77
2022/12/23 07:14:51;;;;;;;24.13;11.48;;;;;;;8.06;100.00;100858.00;5050806;28;20053;-78
2022/12/23 07:17:19;;;;;;;22.63;11.82;;;;;;;8.06;100.00;100845.19;5051796;28;20048;-78
2022/12/23 07:19:47;;;;;;;20.60;10.93;;;;;;;8.04;100.00;100839.19;5051707;28;20045;-78
2022/12/23 07:22:15;;;;;;;20.90;12.68;;;;;;;8.07;100.00;100854.22;5052034;28;20052;-78
2022/12/23 07:24:42;;;;;;;21.27;10.85;;;;;;;7.94;100.00;100858.97;5051795;28;20395;-77
2022/12/23 07:27:10;;;;;;;23.33;11.98;;;;;;;8.03;100.00;100867.50;5051610;28;20134;-78
2022/12/23 07:29:38;;;;;;;23.83;11.48;;;;;;;8.04;100.00;100854.72;5050501;28;20399;-77
2022/12/23 07:32:06;;;;;;;26.10;13.27;;;;;;;8.14;100.00;100845.81;5039241;28;20049;-77
2022/12/23 07:34:35;;;;;;;28.17;13.65;;;;;;;8.18;100.00;100846.97;5031615;28;20053;-77
2022/12/23 07:37:03;;;;;;;27.70;13.23;;;;;;;8.20;100.00;100848.34;5031780;28;20373;-77
2022/12/23 07:39:31;;;;;;;33.22;15.93;;;;;;;8.39;100.00;100841.69;5031140;28;20388;-78
2022/12/23 07:41:59;;;;;;;36.83;19.73;;;;;;;8.39;100.00;100836.22;5031971;28;20391;-78
2022/12/23 07:44:46;;;;;;;45.88;19.02;;;;;;;8.42;100.00;100839.25;5031593;28;20503;-78
2022/12/23 07:47:14;;;;;;;29.15;16.92;;;;;;;8.53;100.00;100847.56;5033851;28;20049;-78
2022/12/23 07:49:42;;;;;;;30.10;15.73;;;;;;;8.50;100.00;100834.44;5035550;28;20508;-78
2022/12/23 07:52:10;;;;;;;27.85;15.05;;;;;;;8.64;100.00;100845.78;5035299;28;20400;-78
2022/12/23 07:54:38;;;;;;;35.45;15.93;;;;;;;8.80;100.00;100843.97;5035294;28;20061;-78
2022/12/23 07:57:06;;;;;;;29.55;14.60;;;;;;;8.78;100.00;100860.63;5035373;28;20045;-78
2022/12/23 07:59:34;;;;;;;25.38;14.35;;;;;;;8.79;99.78;100839.63;5035537;28;20053;-78
2022/12/23 08:02:02;;;;;;;29.23;14.20;;;;;;;8.74;99.69;100848.56;5035283;28;20167;-78
2022/12/23 08:04:30;;;;;;;24.23;12.43;;;;;;;8.67;99.15;100842.50;5035207;28;20053;-78
2022/12/23 08:06:58;;;;;;;27.15;12.98;;;;;;;8.81;97.82;100845.63;5033779;28;20045;-79
2022/12/23 08:09:26;;;;;;;25.58;13.43;;;;;;;8.80;98.09;100844.78;5035086;28;20378;-78
2022/12/23 08:11:54;;;;;;;27.60;12.57;;;;;;;8.80;97.72;100852.16;5034861;28;20046;-78
2022/12/23 08:14:22;;;;;;;26.67;13.45;;;;;;;8.86;97.06;100854.66;5033947;28;20052;-78
2022/12/23 08:16:50;;;;;;;28.38;13.02;;;;;;;8.74;97.84;100845.84;5034914;28;20045;-78
2022/12/23 08:19:18;;;;;;;21.85;11.48;;;;;;;8.92;97.14;100861.00;5034934;28;20041;-78
2022/12/23 08:21:45;;;;;;;32.83;13.63;;;;;;;9.04;96.72;100868.97;5034923;28;20503;-78
2022/12/23 08:24:13;;;;;;;26.38;13.60;;;;;;;8.99;96.00;100858.03;5034830;28;20048;-78
2022/12/23 08:26:41;;;;;;;30.65;12.45;;;;;;;8.99;96.49;100855.28;5034716;28;20072;-78
2022/12/23 08:29:09;;;;;;;25.92;12.98;;;;;;;8.92;95.33;100844.63;5034787;28;20045;-78
2022/12/23 08:31:37;;;;;;;28.27;13.35;;;;;;;9.02;94.06;100871.16;5034648;28;20049;-78
2022/12/23 08:34:05;;;;;;;25.63;12.88;;;;;;;8.96;93.60;100872.22;5034813;28;20056;-79
2022/12/23 08:36:34;;;;;;;24.95;12.90;;;;;;;9.16;93.45;100862.50;5034624;28;20053;-79
2022/12/23 08:39:06;;;;;;;29.13;13.48;;;;;;;9.20;92.93;100855.44;5034551;28;20049;-79
2022/12/23 08:41:41;;;;;;;28.38;13.55;;;;;;;9.06;92.08;100860.53;5034498;28;20073;-79
2022/12/23 08:44:09;;;;;;;25.70;12.27;;;;;;;9.03;92.57;100850.97;5034462;28;20045;-79
2022/12/23 08:46:38;;;;;;;29.02;13.80;;;;;;;9.20;91.83;100845.34;5033060;28;20052;-79
2022/12/23 08:49:06;;;;;;;24.85;12.65;;;;;;;9.24;91.44;100853.84;5034354;28;20057;-79
2022/12/23 08:51:35;;;;;;;25.63;11.98;;;;;;;9.28;91.16;100850.31;5032874;28;20041;-79
2022/12/23 08:54:03;;;;;;;22.52;11.73;;;;;;;9.12;91.45;100838.47;5034310;28;20045;-79
2022/12/23 08:56:34;;;;;;;22.33;10.02;;;;;;;9.26;90.80;100843.47;5033078;28;20049;-79
2022/12/23 08:59:03;;;;;;;20.65;11.23;;;;;;;9.29;91.39;100842.91;5033520;28;20056;-80
2022/12/23 09:01:32;;;;;;;28.23;12.75;;;;;;;9.37;89.46;100847.06;5034453;28;20046;-79
2022/12/23 09:04:04;;;;;;;24.70;13.15;;;;;;;9.31;89.98;100851.69;5034488;28;20053;-79
2022/12/23 09:06:36;;;;;;;20.52;11.30;;;;;;;9.36;88.82;100850.88;5034077;28;20071;-79
2022/12/23 09:09:05;;;;;;;26.45;11.90;;;;;;;9.45;89.48;100854.75;5032889;28;20488;-79
2022/12/23 09:11:33;;;;;;;22.55;11.98;;;;;;;9.39;89.63;100856.63;5033775;28;20041;-79
2022/12/23 09:14:02;;;;;;;27.90;13.07;;;;;;;9.62;87.70;100856.47;5032736;28;20475;-79
2022/12/23 09:16:30;;;;;;;24.00;12.88;;;;;;;9.51;89.48;100850.97;5033668;28;20399;-78
2022/12/23 09:18:59;;;;;;;25.20;12.40;;;;;;;9.45;90.04;100862.13;5033829;28;20053;-79
2022/12/23 09:21:28;;;;;;;21.08;11.32;;;;;;;9.54;89.23;100860.53;5016424;28;20053;-79
2022/12/23 09:23:56;;;;;;;23.50;11.90;;;;;;;9.57;88.90;100860.00;5033656;28;20037;-79
2022/12/23 09:26:27;;;;;;;26.20;12.13;;;;;;;9.70;88.06;100877.81;5033458;28;20396;-79
2022/12/23 09:28:56;;;;;;;27.83;13.18;;;;;;;9.72;88.35;100872.09;5032219;28;20068;-80
2022/12/23 09:31:24;;;;;;;25.90;11.70;;;;;;;10.11;87.13;100868.94;5033274;28;20041;-80
2022/12/23 09:34:00;;;;;;;23.85;11.73;;;;;;;10.28;85.27;100870.63;5033346;28;20049;-79
2022/12/23 09:36:28;;;;;;;26.98;14.43;;;;;;;10.17;85.71;100867.06;5033277;28;20399;-79
2022/12/23 09:38:57;;;;;;;30.77;14.70;;;;;;;10.44;84.74;100860.53;5033365;28;20038;-79
2022/12/23 09:41:33;;;;;;;33.05;16.17;;;;;;;10.59;84.00;100865.19;5033333;28;20064;-79
2022/12/23 09:44:05;;;;;;;32.75;15.55;;;;;;;10.74;82.76;100848.78;5032160;28;20416;-79
2022/12/23 09:46:37;;;;;;;28.58;14.93;;;;;;;10.62;83.20;100845.53;5033130;28;20076;-77
2022/12/23 09:49:11;;;;;;;30.90;16.20;;;;;;;10.64;84.09;100856.19;5033377;28;20045;-77
2022/12/23 09:51:39;;;;;;;34.22;15.63;;;;;;;10.71;83.27;100865.75;5033050;28;20041;-78
2022/12/23 09:54:21;;;;;;;27.10;14.60;;;;;;;10.50;84.02;100864.13;5033158;28;20188;-78
2022/12/23 09:57:30;;;;;;;28.17;15.98;;;;;;;10.24;85.38;100872.25;5033017;28;20049;-77
2022/12/23 10:00:05;;;;;;;38.05;17.45;;;;;;;10.41;83.94;100877.50;5030023;28;20053;-77
2022/12/23 10:02:58;;;;;;;26.67;14.65;;;;;;;10.68;82.67;100868.22;5033038;28;20060;-78
2022/12/23 10:05:34;;;;;;;32.15;15.00;;;;;;;10.89;84.42;100885.47;5032993;28;20045;-77
2022/12/23 10:08:11;;;;;;;33.10;16.50;;;;;;;11.12;82.69;100894.22;5032748;28;20053;-77
2022/12/23 10:11:14;;;;;;;33.22;16.13;;;;;;;11.70;82.75;100901.22;5032714;28;20057;-77
2022/12/23 10:13:49;;;;;;;35.13;17.33;;;;;;;11.24;81.57;100885.72;5024696;28;20053;-77
2022/12/23 10:16:24;;;;;;;37.13;17.92;;;;;;;10.40;84.93;100887.59;5032665;28;20052;-77
2022/12/23 10:18:58;;;;;;;38.65;18.23;;;;;;;10.52;86.67;100886.56;5032691;28;20049;-77
2022/12/23 10:21:31;;;;;;;38.90;18.35;;;;;;;10.56;85.89;100879.44;5032713;28;20072;-77
2022/12/23 10:24:09;;;;;;;38.47;18.23;;;;;;;10.56;86.27;100871.25;5032723;28;20054;-78
2022/12/23 10:26:51;;;;;;;36.03;17.90;;;;;;;10.44;86.41;100876.97;5031826;28;20057;-79
2022/12/23 10:29:21;;;;;;;31.77;16.63;;;;;;;10.52;87.00;100875.59;5032658;28;20048;-78
2022/12/23 10:32:21;;;;;;;30.83;16.90;;;;;;;10.45;85.99;100863.00;5032477;28;20048;-78
2022/12/23 10:35:06;;;;;;;32.88;16.63;;;;;;;10.83;85.56;100859.19;5013227;28;20050;-78
2022/12/23 10:37:54;;;;;;;35.95;17.50;;;;;;;11.15;82.63;100864.34;5032404;28;20041;-79
2022/12/23 10:40:48;;;;;;;37.83;18.83;;;;;;;11.21;81.35;100862.44;5032610;28;20065;-78
2022/12/23 10:43:19;;;;;;;41.97;19.10;;;;;;;11.40;81.87;100859.09;5032344;28;20042;-78
2022/12/23 10:46:14;;;;;;;38.63;18.25;;;;;;;11.47;82.54;100854.13;5032149;28;20049;-78
2022/12/23 10:48:51;;;;;;;39.38;17.95;;;;;;;11.64;79.89;100869.44;5032145;28;20049;-78
2022/12/23 10:51:25;;;;;;;39.72;17.70;;;;;;;11.78;80.84;100859.50;5030756;28;20053;-78
2022/12/23 10:53:59;;;;;;;37.17;18.27;;;;;;;11.85;81.60;100853.72;5032236;28;20053;-77
2022/12/23 10:56:30;;;;;;;38.22;18.33;;;;;;;11.58;82.09;100848.63;5032374;28;20400;-77
2022/12/23 10:59:00;;;;;;;35.63;19.73;;;;;;;11.53;80.81;100844.78;5032313;28;20053;-77
2022/12/23 11:01:30;;;;;;;36.30;17.70;;;;;;;11.44;81.36;100838.22;5030843;28;20052;-76
2022/12/23 11:04:13;;;;;;;34.53;16.85;;;;;;;11.33;82.97;100831.19;5031018;28;20042;-78
2022/12/23 11:06:51;;;;;;;37.80;17.48;;;;;;;11.41;81.20;100838.81;5031995;28;20053;-78
2022/12/23 11:09:46;;;;;;;43.03;18.92;;;;;;;11.53;84.02;100847.53;5032036;28;20514;-79
2022/12/23 11:12:14;;;;;;;38.47;17.95;;;;;;;11.56;81.42;100841.50;5031858;28;20053;-80
2022/12/23 11:14:55;;;;;;;38.80;19.67;;;;;;;11.50;81.64;100837.16;5031923;28;20104;-79
2022/12/23 11:17:29;;;;;;;36.22;17.67;;;;;;;11.59;81.73;100829.13;5030634;28;20073;-78
2022/12/23 11:20:06;;;;;;;;;;;;;;;11.96;81.12;100832.53;5032381;28;20515;-78
2022/12/23 11:22:34;;;;;;;38.78;18.33;;;;;;;12.17;79.41;100843.41;5035192;28;19928;-78
2022/12/23 11:25:37;;;;;;;37.13;17.33;;;;;;;12.26;78.02;100827.97;5035928;28;20507;-77
2022/12/23 11:28:15;;;;;;;36.60;17.92;;;;;;;11.89;80.61;100826.53;5051054;28;20503;-78
2022/12/23 11:30:49;;;;;;;39.22;19.02;;;;;;;11.85;80.40;100830.94;5035577;28;20068;-78
2022/12/23 11:33:33;;;;;;;40.05;17.40;;;;;;;11.78;79.94;100834.81;5035908;28;20072;-78
2022/12/23 11:36:11;;;;;;;47.53;18.92;;;;;;;11.94;79.65;100826.50;5035538;28;20046;-78
2022/12/23 11:39:05;;;;;;;34.00;17.70;;;;;;;11.35;83.11;100807.03;5035766;28;20061;-78
2022/12/23 11:41:41;;;;;;;40.50;19.02;;;;;;;11.27;85.77;100822.13;5035683;28;20049;-79
2022/12/23 11:44:37;;;;;;;40.17;19.50;;;;;;;11.11;86.07;100793.97;5035802;28;20369;-79
2022/12/23 11:47:23;;;;;;;37.78;17.45;;;;;;;11.12;86.45;100804.66;5035183;28;20492;-79
2022/12/23 11:50:01;;;;;;;33.50;18.50;;;;;;;11.31;84.75;100809.53;5035714;28;20045;-79
2022/12/23 11:52:31;;;;;;;33.80;17.67;;;;;;;11.43;83.53;100804.56;5035581;28;20049;-79
2022/12/23 11:55:04;;;;;;;35.30;18.48;;;;;;;11.39;84.19;100800.72;5035722;28;20492;-79
2022/12/23 11:57:42;;;;;;;39.00;17.60;;;;;;;11.48;84.28;100795.47;5035699;28;20046;-79
2022/12/23 12:00:41;;;;;;;35.70;17.85;;;;;;;11.56;84.76;100785.84;5035518;28;20081;-79